Time;durP1;ratioP1;P1;durP2;ratioP2;P2;SDS_P1;SDS_P2;PMS_P1;PMS_P2;Temp;Humidity;BMP_temperature;BMP_pressure;BME280_temperature;BME280_humidity;BME280_pressure;Samples;Min_cycle;Max_cycle;Signal;HPM_P1;HPM_P2
2022/03/02 00:01:45;;;;;;;20.02;11.55;;;1.20;1.00;;;;;;7365941;19;20016;-59
2022/03/02 00:04:15;;;;;;;19.88;11.63;;;1.10;1.00;;;;;;7357991;19;20010;-60
2022/03/02 00:06:47;;;;;;;21.63;12.85;;;1.00;1.00;;;;;;7383169;19;20018;-60
2022/03/02 00:09:17;;;;;;;19.00;12.18;;;0.80;1.00;;;;;;7360579;19;20012;-61
2022/03/02 00:11:47;;;;;;;18.40;11.57;;;0.70;1.00;;;;;;7364749;19;20488;-59
2022/03/02 00:14:17;;;;;;;21.98;11.75;;;0.70;1.00;;;;;;7357768;19;20367;-59
2022/03/02 00:16:47;;;;;;;21.08;12.57;;;0.70;1.00;;;;;;7360359;19;20093;-61
2022/03/02 00:19:17;;;;;;;20.25;11.95;;;0.80;1.00;;;;;;7361114;19;20046;-60
2022/03/02 00:21:50;;;;;;;21.27;12.63;;;0.70;1.00;;;;;;7367182;19;20035;-59
2022/03/02 00:24:20;;;;;;;20.00;11.35;;;0.80;1.00;;;;;;7380341;19;20015;-60
2022/03/02 00:26:50;;;;;;;23.75;12.70;;;0.80;1.00;;;;;;7359495;19;20011;-60
2022/03/02 00:29:21;;;;;;;21.08;12.20;;;1.00;1.00;;;;;;7358860;19;20007;-59
2022/03/02 00:31:50;;;;;;;21.02;12.60;;;1.10;1.00;;;;;;7362329;19;20026;-59
2022/03/02 00:34:21;;;;;;;19.92;12.40;;;1.10;1.00;;;;;;7359719;19;20402;-59
2022/03/02 00:36:53;;;;;;;19.42;11.00;;;1.10;1.00;;;;;;7360279;19;20040;-60
2022/03/02 00:39:23;;;;;;;18.88;11.30;;;1.10;1.00;;;;;;7380630;19;20086;-60
2022/03/02 00:41:53;;;;;;;23.90;12.32;;;1.10;1.00;;;;;;7359809;19;20773;-59
2022/03/02 00:44:24;;;;;;;23.17;12.05;;;1.10;1.00;;;;;;7360142;19;20039;-61
2022/03/02 00:46:54;;;;;;;18.52;11.52;;;1.00;1.00;;;;;;7360948;19;20010;-60
2022/03/02 00:49:26;;;;;;;19.88;11.80;;;1.10;1.00;;;;;;7359423;19;20030;-60
2022/03/02 00:52:00;;;;;;;19.70;11.90;;;1.10;1.00;;;;;;7360221;19;20086;-60
2022/03/02 00:54:30;;;;;;;20.38;11.63;;;1.10;1.00;;;;;;7380144;19;20015;-60
2022/03/02 00:57:00;;;;;;;20.67;11.93;;;1.10;1.00;;;;;;7362350;19;20504;-61
2022/03/02 00:59:30;;;;;;;19.30;10.63;;;1.10;1.00;;;;;;7359568;19;20010;-60
2022/03/02 01:02:04;;;;;;;18.98;11.25;;;1.10;1.00;;;;;;7359703;19;20461;-60
2022/03/02 01:04:34;;;;;;;18.10;11.23;;;1.10;1.00;;;;;;7359154;19;20389;-63
2022/03/02 01:07:07;;;;;;;18.85;11.38;;;1.10;1.00;;;;;;7361638;19;20477;-60
2022/03/02 01:09:37;;;;;;;18.55;11.60;;;1.10;1.00;;;;;;7382667;19;20462;-60
2022/03/02 01:12:07;;;;;;;20.88;11.05;;;1.10;1.00;;;;;;7358635;19;20601;-60
2022/03/02 01:14:37;;;;;;;21.77;12.75;;;1.00;1.00;;;;;;7357573;19;20097;-60
2022/03/02 01:17:07;;;;;;;18.08;11.32;;;1.00;1.00;;;;;;7361679;19;20086;-59
2022/03/02 01:19:39;;;;;;;24.75;11.93;;;1.00;1.00;;;;;;7366059;19;20039;-59
2022/03/02 01:22:11;;;;;;;19.60;12.05;;;1.00;1.00;;;;;;7365180;19;20596;-60
2022/03/02 01:24:41;;;;;;;18.95;12.07;;;0.90;1.00;;;;;;7386155;19;20074;-60
2022/03/02 01:27:13;;;;;;;22.77;11.57;;;0.80;1.00;;;;;;7366253;19;20363;-60
2022/03/02 01:29:43;;;;;;;21.95;11.57;;;0.70;1.00;;;;;;7367324;19;20433;-60
2022/03/02 01:32:13;;;;;;;23.83;12.00;;;0.70;1.00;;;;;;7366401;19;20478;-60
2022/03/02 01:34:43;;;;;;;22.15;11.73;;;0.70;1.00;;;;;;7365209;19;20018;-61
2022/03/02 01:37:16;;;;;;;29.10;13.05;;;0.60;1.00;;;;;;7365949;19;20014;-60
2022/03/02 01:39:48;;;;;;;24.65;12.95;;;0.50;1.00;;;;;;7377956;19;20082;-60
2022/03/02 01:42:18;;;;;;;23.65;12.70;;;0.60;1.00;;;;;;7388842;19;20028;-60
2022/03/02 01:44:48;;;;;;;24.67;12.43;;;0.60;1.00;;;;;;7362538;19;20061;-59
2022/03/02 01:47:18;;;;;;;21.98;12.35;;;0.60;1.00;;;;;;7365962;19;20010;-60
2022/03/02 01:49:49;;;;;;;22.20;12.10;;;0.60;1.00;;;;;;7367290;19;20074;-60
2022/03/02 01:52:21;;;;;;;22.17;12.50;;;0.60;1.00;;;;;;7366730;19;20010;-60
2022/03/02 01:54:51;;;;;;;21.55;12.63;;;0.70;1.00;;;;;;7362290;19;20025;-60
2022/03/02 01:57:22;;;;;;;23.80;12.27;;;0.60;1.00;;;;;;7385378;19;20320;-60
2022/03/02 01:59:52;;;;;;;20.17;11.90;;;0.70;1.00;;;;;;7365886;19;20090;-60
2022/03/02 02:02:22;;;;;;;18.60;11.27;;;0.60;1.00;;;;;;7365893;19;20014;-59
2022/03/02 02:04:53;;;;;;;18.27;11.27;;;0.70;1.00;;;;;;7365495;19;20011;-59
2022/03/02 02:07:27;;;;;;;20.02;10.80;;;0.70;1.00;;;;;;7363116;19;21371;-60
2022/03/02 02:09:59;;;;;;;19.65;11.20;;;0.70;1.00;;;;;;7367579;19;20030;-59
2022/03/02 02:12:29;;;;;;;21.45;10.95;;;0.70;1.00;;;;;;7386483;19;20021;-60
2022/03/02 02:14:59;;;;;;;19.05;10.57;;;0.60;1.00;;;;;;7363018;19;20014;-59
2022/03/02 02:17:29;;;;;;;17.52;10.20;;;0.60;1.00;;;;;;7366120;19;20747;-59
2022/03/02 02:20:00;;;;;;;16.75;10.55;;;0.50;1.00;;;;;;7365956;19;20365;-61
2022/03/02 02:22:32;;;;;;;16.52;9.55;;;0.60;1.00;;;;;;7363608;19;20769;-60
2022/03/02 02:25:02;;;;;;;16.70;10.10;;;0.60;1.00;;;;;;7363595;19;20058;-59
2022/03/02 02:27:32;;;;;;;19.48;10.77;;;0.50;1.00;;;;;;7383474;19;20417;-59
2022/03/02 02:30:03;;;;;;;17.92;10.65;;;0.50;1.00;;;;;;7364197;19;20014;-59
2022/03/02 02:32:34;;;;;;;19.80;11.18;;;0.40;1.00;;;;;;7360975;19;20494;-60
2022/03/02 02:35:03;;;;;;;17.92;10.85;;;0.30;1.00;;;;;;7360837;19;20013;-59
2022/03/02 02:37:38;;;;;;;20.48;11.73;;;0.30;1.00;;;;;;7363310;19;20493;-59
2022/03/02 02:40:11;;;;;;;20.80;11.55;;;0.20;1.00;;;;;;7367377;19;20465;-59
2022/03/02 02:42:44;;;;;;;20.70;11.73;;;0.20;1.00;;;;;;7381884;19;20688;-60
2022/03/02 02:45:17;;;;;;;22.05;11.70;;;0.10;1.00;;;;;;7359264;19;20006;-59
2022/03/02 02:47:47;;;;;;;18.92;12.10;;;0.10;1.00;;;;;;7363180;19;20014;-59
2022/03/02 02:50:20;;;;;;;20.73;11.73;;;0.10;1.00;;;;;;7365525;19;20491;-59
2022/03/02 02:52:54;;;;;;;24.10;11.40;;;0.00;1.00;;;;;;7362661;19;20010;-59
2022/03/02 02:55:27;;;;;;;18.90;11.90;;;-0.10;1.00;;;;;;7359336;19;20035;-60
2022/03/02 02:57:58;;;;;;;22.02;12.85;;;-0.10;1.00;;;;;;7362864;19;20573;-60
2022/03/02 03:00:30;;;;;;;21.75;12.20;;;-0.20;1.00;;;;;;7386824;19;20120;-59
2022/03/02 03:03:01;;;;;;;20.23;12.40;;;-0.30;1.00;;;;;;7363859;19;20014;-60
2022/03/02 03:05:34;;;;;;;22.77;13.07;;;-0.40;1.00;;;;;;7359592;19;20664;-59
2022/03/02 03:08:09;;;;;;;20.95;12.55;;;-0.30;1.00;;;;;;7362409;19;20032;-60
2022/03/02 03:10:40;;;;;;;24.13;12.82;;;-0.40;1.00;;;;;;7365055;19;20010;-58
2022/03/02 03:13:10;;;;;;;25.85;12.70;;;-0.50;1.00;;;;;;7363161;19;20010;-60
2022/03/02 03:15:41;;;;;;;23.33;13.13;;;-0.50;1.00;;;;;;7379770;19;20022;-59
2022/03/02 03:18:13;;;;;;;25.55;13.45;;;-0.60;1.00;;;;;;7361090;19;20039;-59
2022/03/02 03:20:42;;;;;;;23.08;14.13;;;-0.60;1.00;;;;;;7363014;19;20346;-58
2022/03/02 03:23:15;;;;;;;21.80;13.02;;;-0.60;1.00;;;;;;7361959;19;20026;-59
2022/03/02 03:25:45;;;;;;;26.80;13.73;;;-0.70;1.00;;;;;;7361494;19;20017;-60
2022/03/02 03:28:15;;;;;;;31.90;14.30;;;-0.60;1.00;;;;;;7362005;19;20048;-60
2022/03/02 03:30:45;;;;;;;29.27;15.18;;;-0.70;1.00;;;;;;7385378;19;20022;-60
2022/03/02 03:33:15;;;;;;;29.42;15.27;;;-0.60;1.00;;;;;;7361115;19;20013;-60
2022/03/02 03:35:45;;;;;;;29.92;16.73;;;-0.60;1.00;;;;;;7358094;19;20454;-60
2022/03/02 03:38:17;;;;;;;24.08;14.07;;;-0.60;1.00;;;;;;7362165;19;20014;-61
2022/03/02 03:40:47;;;;;;;22.58;13.98;;;-0.50;1.00;;;;;;7362542;19;20021;-60
2022/03/02 03:43:17;;;;;;;24.85;13.95;;;-0.50;1.00;;;;;;7360685;19;20015;-62
2022/03/02 03:45:49;;;;;;;26.98;13.98;;;-0.50;1.00;;;;;;7361310;19;20385;-61
2022/03/02 03:48:19;;;;;;;26.77;14.32;;;-0.50;1.00;;;;;;7383336;19;20007;-61
2022/03/02 03:50:49;;;;;;;24.52;13.57;;;-0.60;1.00;;;;;;7363932;19;20018;-60
2022/03/02 03:53:21;;;;;;;22.75;13.65;;;-0.40;1.00;;;;;;7361459;19;20016;-60
2022/03/02 03:55:51;;;;;;;24.38;13.45;;;-0.50;1.00;;;;;;7359244;19;20013;-59
2022/03/02 03:58:21;;;;;;;24.17;13.70;;;-0.60;1.00;;;;;;7362398;19;20014;-60
2022/03/02 04:00:51;;;;;;;22.85;14.00;;;-0.60;1.00;;;;;;7364188;19;20022;-62
2022/03/02 04:03:21;;;;;;;22.35;13.05;;;-0.60;1.00;;;;;;7382075;19;20391;-60
2022/03/02 04:05:51;;;;;;;25.90;13.60;;;-0.70;1.00;;;;;;7359286;19;20011;-59
2022/03/02 04:08:25;;;;;;;22.40;12.20;;;-0.70;1.00;;;;;;7362480;19;20031;-59
2022/03/02 04:10:55;;;;;;;23.98;13.55;;;-0.70;1.00;;;;;;7364007;19;20376;-59
2022/03/02 04:13:24;;;;;;;21.58;12.93;;;-0.70;1.00;;;;;;7359816;19;20655;-60
2022/03/02 04:15:54;;;;;;;24.80;13.55;;;-0.80;1.00;;;;;;7358325;19;20011;-59
2022/03/02 04:18:24;;;;;;;23.55;14.05;;;-0.80;1.00;;;;;;7383962;19;20025;-61
2022/03/02 04:20:54;;;;;;;25.35;13.48;;;-0.70;1.00;;;;;;7362359;19;20016;-60
2022/03/02 04:23:27;;;;;;;29.17;13.80;;;-0.70;1.00;;;;;;7361479;19;20074;-60
2022/03/02 04:26:00;;;;;;;20.92;13.23;;;-0.60;1.00;;;;;;7357956;19;20017;-60
2022/03/02 04:28:30;;;;;;;22.75;12.50;;;-0.60;1.00;;;;;;7361220;19;20477;-60
2022/03/02 04:31:00;;;;;;;24.83;12.90;;;-0.70;1.00;;;;;;7364146;19;20014;-61
2022/03/02 04:33:29;;;;;;;23.75;13.18;;;-0.80;1.00;;;;;;7382940;19;20086;-60
2022/03/02 04:35:59;;;;;;;21.15;12.85;;;-0.90;1.00;;;;;;7357268;19;20086;-59
2022/03/02 04:38:32;;;;;;;23.67;12.68;;;-0.80;1.00;;;;;;7359686;19;20077;-60
2022/03/02 04:41:02;;;;;;;21.45;12.38;;;-0.90;1.00;;;;;;7364464;19;20021;-60
2022/03/02 04:43:32;;;;;;;21.92;12.65;;;-0.80;1.00;;;;;;7361989;19;19998;-60
2022/03/02 04:46:02;;;;;;;23.83;13.60;;;-0.90;1.00;;;;;;7357382;19;20010;-60
2022/03/02 04:48:32;;;;;;;22.15;12.85;;;-0.80;1.00;;;;;;7381694;19;20010;-58
2022/03/02 04:51:02;;;;;;;20.30;12.65;;;-0.80;1.00;;;;;;7362818;19;20087;-58
2022/03/02 04:53:35;;;;;;;26.77;13.40;;;-0.80;1.00;;;;;;7359632;19;20010;-59
2022/03/02 04:56:05;;;;;;;22.33;12.82;;;-0.80;1.00;;;;;;7359712;19;20014;-59
2022/03/02 04:58:34;;;;;;;23.23;13.27;;;-0.80;1.00;;;;;;7359759;19;20110;-59
2022/03/02 05:01:05;;;;;;;21.23;12.65;;;-0.90;1.00;;;;;;7362652;19;20015;-59
2022/03/02 05:03:35;;;;;;;21.35;12.60;;;-0.90;1.00;;;;;;7382966;19;20022;-59
2022/03/02 05:06:04;;;;;;;27.52;13.55;;;-0.70;1.00;;;;;;7357034;19;20086;-60
2022/03/02 05:08:37;;;;;;;28.58;13.38;;;-0.80;1.00;;;;;;7360013;19;20424;-60
2022/03/02 05:11:07;;;;;;;21.58;12.43;;;-0.80;1.00;;;;;;7362895;19;20018;-60
2022/03/02 05:13:37;;;;;;;24.95;13.75;;;-0.90;1.00;;;;;;7360410;19;20057;-59
2022/03/02 05:16:07;;;;;;;24.85;12.85;;;-0.90;1.00;;;;;;7359753;19;20000;-58
2022/03/02 05:18:41;;;;;;;24.05;13.88;;;-0.80;1.00;;;;;;7381386;19;20010;-59
2022/03/02 05:21:11;;;;;;;25.77;12.95;;;-0.80;1.00;;;;;;7360768;19;20206;-60
2022/03/02 05:23:44;;;;;;;28.00;13.25;;;-0.80;1.00;;;;;;7358545;19;20716;-59
2022/03/02 05:26:16;;;;;;;22.92;13.05;;;-0.80;1.00;;;;;;7359547;19;20017;-59
2022/03/02 05:28:46;;;;;;;26.77;12.77;;;-0.80;1.00;;;;;;7361199;19;20011;-59
2022/03/02 05:31:16;;;;;;;23.65;12.88;;;-0.80;1.00;;;;;;7360424;19;19999;-59
2022/03/02 05:33:46;;;;;;;23.92;13.65;;;-0.80;1.00;;;;;;7372180;19;20014;-59
2022/03/02 05:36:16;;;;;;;21.92;13.35;;;-0.90;1.00;;;;;;7381301;19;20116;-58
2022/03/02 05:38:48;;;;;;;26.63;13.73;;;-0.80;1.00;;;;;;7359820;19;20011;-59
2022/03/02 05:41:24;;;;;;;23.08;13.52;;;-0.80;1.00;;;;;;7361874;19;20011;-59
2022/03/02 05:43:57;;;;;;;22.92;13.10;;;-0.80;1.00;;;;;;7355469;19;20086;-60
2022/03/02 05:46:27;;;;;;;23.67;13.40;;;-0.80;1.00;;;;;;7358360;19;20488;-60
2022/03/02 05:48:57;;;;;;;23.90;12.70;;;-0.80;1.00;;;;;;7359647;19;20014;-60
2022/03/02 05:51:28;;;;;;;21.98;13.13;;;-0.80;1.00;;;;;;7382612;19;20007;-59
2022/03/02 05:54:01;;;;;;;25.38;12.68;;;-0.70;1.00;;;;;;7354031;19;20007;-60
2022/03/02 05:56:30;;;;;;;20.55;12.95;;;-0.70;1.00;;;;;;7358024;19;20536;-59
2022/03/02 05:59:01;;;;;;;22.00;13.88;;;-0.70;1.00;;;;;;7358059;19;20014;-59
2022/03/02 06:01:31;;;;;;;23.17;12.95;;;-0.60;1.00;;;;;;7361969;19;20010;-59
2022/03/02 06:04:01;;;;;;;22.90;13.18;;;-0.60;1.00;;;;;;7356122;19;20049;-59
2022/03/02 06:06:42;;;;;;;26.83;14.20;;;-0.60;1.00;;;;;;7387823;19;20022;-60
2022/03/02 06:09:15;;;;;;;29.23;14.02;;;-0.60;1.00;;;;;;7364215;19;20082;-59
2022/03/02 06:11:46;;;;;;;22.85;13.50;;;-0.60;1.00;;;;;;7367841;19;20011;-59
2022/03/02 06:14:16;;;;;;;25.58;13.35;;;-0.50;1.00;;;;;;7368046;19;20015;-59
2022/03/02 06:16:47;;;;;;;23.00;13.02;;;-0.40;1.00;;;;;;7366484;19;20384;-60
2022/03/02 06:19:17;;;;;;;21.58;13.07;;;-0.40;1.00;;;;;;7362212;19;20492;-60
2022/03/02 06:21:49;;;;;;;20.60;12.65;;;-0.30;1.00;;;;;;7366133;19;20014;-60
2022/03/02 06:24:22;;;;;;;21.90;12.52;;;-0.40;1.00;;;;;;7388155;19;20047;-59
2022/03/02 06:26:52;;;;;;;21.48;12.88;;;-0.30;1.00;;;;;;7365969;19;20018;-61
2022/03/02 06:29:22;;;;;;;24.67;12.88;;;-0.20;1.00;;;;;;7361619;19;20461;-59
2022/03/02 06:31:52;;;;;;;23.00;12.35;;;-0.20;1.00;;;;;;7365095;19;20010;-59
2022/03/02 06:34:22;;;;;;;23.15;12.13;;;-0.20;1.00;;;;;;7363549;19;20417;-60
2022/03/02 06:36:52;;;;;;;21.63;11.63;;;-0.20;1.00;;;;;;7366832;19;20022;-60
2022/03/02 06:39:25;;;;;;;22.02;11.43;;;-0.10;1.00;;;;;;7382424;19;20006;-60
2022/03/02 06:42:05;;;;;;;22.85;12.02;;;0.10;1.00;;;;;;7362044;19;20035;-60
2022/03/02 06:44:41;;;;;;;22.60;11.52;;;0.10;1.00;;;;;;7364938;19;20015;-60
2022/03/02 06:47:13;;;;;;;25.15;12.15;;;0.00;1.00;;;;;;7365421;19;20095;-59
2022/03/02 06:50:01;;;;;;;24.60;11.00;;;0.10;1.00;;;;;;7362569;19;20039;-60
2022/03/02 06:52:36;;;;;;;20.13;10.70;;;0.10;1.00;;;;;;7364899;19;20041;-61
2022/03/02 06:55:13;;;;;;;18.83;11.52;;;0.30;1.00;;;;;;7364957;19;20607;-60
2022/03/02 06:57:46;;;;;;;19.70;12.05;;;0.40;1.00;;;;;;7384592;19;20015;-60
2022/03/02 07:00:18;;;;;;;21.83;11.32;;;0.40;1.00;;;;;;7361058;19;20067;-60
2022/03/02 07:02:51;;;;;;;20.25;10.88;;;0.30;1.00;;;;;;7363944;19;20078;-59
2022/03/02 07:05:23;;;;;;;18.08;10.55;;;0.30;1.00;;;;;;7366076;19;20468;-60
2022/03/02 07:07:52;;;;;;;19.60;10.30;;;0.40;1.00;;;;;;7364110;19;20097;-59
2022/03/02 07:10:27;;;;;;;20.65;11.20;;;0.60;1.00;;;;;;7360338;19;20011;-60
2022/03/02 07:12:57;;;;;;;19.63;11.20;;;0.40;1.00;;;;;;7362251;19;20018;-60
2022/03/02 07:15:27;;;;;;;18.05;10.82;;;0.50;1.00;;;;;;7385722;19;20073;-58
2022/03/02 07:17:56;;;;;;;17.25;10.50;;;0.60;1.00;;;;;;7361232;19;20014;-60
2022/03/02 07:20:27;;;;;;;18.48;10.75;;;0.60;1.00;;;;;;7359052;19;20541;-60
2022/03/02 07:22:59;;;;;;;19.92;10.73;;;0.70;1.00;;;;;;7362746;19;20014;-61
2022/03/02 07:25:37;;;;;;;20.65;10.90;;;0.80;1.00;;;;;;7364544;19;20090;-60
2022/03/02 07:28:08;;;;;;;22.13;10.90;;;1.00;1.00;;;;;;7363627;19;20467;-60
2022/03/02 07:30:39;;;;;;;21.17;11.10;;;1.10;1.00;;;;;;7385905;19;20108;-60
2022/03/02 07:33:10;;;;;;;21.63;10.57;;;1.10;1.00;;;;;;7360993;19;20993;-59
2022/03/02 07:35:40;;;;;;;18.70;10.77;;;1.00;1.00;;;;;;7364047;19;20070;-61
2022/03/02 07:38:10;;;;;;;19.85;11.90;;;1.10;1.00;;;;;;7362609;19;20007;-60
2022/03/02 07:40:45;;;;;;;18.23;10.82;;;1.10;1.00;;;;;;7363337;19;20434;-60
2022/03/02 07:43:15;;;;;;;22.63;10.27;;;1.20;1.00;;;;;;7361593;19;20006;-60
2022/03/02 07:45:46;;;;;;;16.42;9.93;;;1.30;1.00;;;;;;7387142;19;20041;-58
2022/03/02 07:48:16;;;;;;;19.00;10.10;;;1.30;1.00;;;;;;7358529;19;20039;-59
2022/03/02 07:50:49;;;;;;;18.77;10.05;;;1.50;1.00;;;;;;7366159;19;20025;-59
2022/03/02 07:53:28;;;;;;;16.95;9.80;;;1.50;1.00;;;;;;7359989;19;20022;-59
2022/03/02 07:56:01;;;;;;;20.45;10.48;;;1.50;1.00;;;;;;7364591;19;20074;-60
2022/03/02 07:58:31;;;;;;;19.52;10.73;;;1.60;1.00;;;;;;7357924;19;20010;-59
2022/03/02 08:01:03;;;;;;;15.90;9.77;;;1.60;1.00;;;;;;7366084;19;20010;-60
2022/03/02 08:03:39;;;;;;;18.13;11.38;;;1.80;1.00;;;;;;7381252;19;20082;-59
2022/03/02 08:06:10;;;;;;;18.70;10.63;;;1.90;1.00;;;;;;7363062;19;20027;-60
2022/03/02 08:08:41;;;;;;;19.90;11.77;;;2.00;1.00;;;;;;7358639;19;20031;-59
2022/03/02 08:11:13;;;;;;;19.30;10.90;;;2.00;1.00;;;;;;7365002;19;20027;-59
2022/03/02 08:13:43;;;;;;;25.83;11.80;;;2.00;1.00;;;;;;7361903;19;20016;-59
2022/03/02 08:16:14;;;;;;;20.83;11.10;;;2.20;1.00;;;;;;7362499;19;20018;-59
2022/03/02 08:18:44;;;;;;;19.05;11.65;;;2.00;1.00;;;;;;7378747;19;20031;-59
2022/03/02 08:21:18;;;;;;;23.50;11.90;;;2.00;1.00;;;;;;7363855;19;20066;-59
2022/03/02 08:23:52;;;;;;;17.65;10.18;;;2.10;1.00;;;;;;7359576;19;20387;-60
2022/03/02 08:26:26;;;;;;;16.13;10.73;;;2.00;1.00;;;;;;7363228;19;20033;-60
2022/03/02 08:28:58;;;;;;;18.05;10.73;;;2.30;1.00;;;;;;7355980;19;20362;-60
2022/03/02 08:31:28;;;;;;;14.38;9.57;;;2.40;1.00;;;;;;7363547;19;20089;-61
2022/03/02 08:33:58;;;;;;;21.10;11.52;;;2.50;1.00;;;;;;7359204;19;20014;-60
2022/03/02 08:36:33;;;;;;;15.73;10.45;;;2.50;1.00;;;;;;7385140;19;20026;-59
2022/03/02 08:39:06;;;;;;;18.98;10.60;;;2.60;1.00;;;;;;7356818;19;20049;-60
2022/03/02 08:41:39;;;;;;;17.83;10.93;;;2.70;1.00;;;;;;7362027;19;20074;-60
2022/03/02 08:44:12;;;;;;;17.83;9.95;;;2.80;1.00;;;;;;7359358;19;20077;-59
2022/03/02 08:46:44;;;;;;;19.85;10.80;;;2.80;1.00;;;;;;7362267;19;20098;-59
2022/03/02 08:49:15;;;;;;;19.85;10.57;;;3.00;1.00;;;;;;7358277;19;20086;-59
2022/03/02 08:51:45;;;;;;;17.52;9.95;;;3.00;1.00;;;;;;7382981;19;20098;-60
2022/03/02 08:54:15;;;;;;;20.52;10.30;;;3.10;1.00;;;;;;7359716;19;20013;-61
2022/03/02 08:56:49;;;;;;;14.98;9.50;;;3.10;1.00;;;;;;7361455;19;20014;-59
2022/03/02 08:59:20;;;;;;;22.40;11.33;;;3.30;1.00;;;;;;7358579;19;20002;-59
2022/03/02 09:01:52;;;;;;;17.73;9.70;;;3.30;1.00;;;;;;7361837;19;20268;-60
2022/03/02 09:04:25;;;;;;;15.27;9.27;;;3.60;1.00;;;;;;7360522;19;20015;-60
2022/03/02 09:06:56;;;;;;;16.75;10.15;;;3.70;1.00;;;;;;7361279;19;20086;-61
2022/03/02 09:09:26;;;;;;;14.63;10.60;;;3.70;1.00;;;;;;7378854;19;20027;-60
2022/03/02 09:11:59;;;;;;;16.30;8.98;;;3.80;1.00;;;;;;7360347;19;20335;-61
2022/03/02 09:14:29;;;;;;;16.55;9.95;;;4.10;1.00;;;;;;7359228;19;20450;-59
2022/03/02 09:16:59;;;;;;;18.35;9.85;;;4.20;1.00;;;;;;7359980;19;20085;-59
2022/03/02 09:19:32;;;;;;;16.75;10.18;;;4.00;1.00;;;;;;7357463;19;20014;-60
2022/03/02 09:22:02;;;;;;;17.30;10.52;;;4.10;1.00;;;;;;7361789;19;20010;-60
2022/03/02 09:24:34;;;;;;;17.88;10.63;;;4.30;1.00;;;;;;7381948;19;20090;-60
2022/03/02 09:27:11;;;;;;;20.15;10.27;;;4.30;1.00;;;;;;7358325;19;20079;-62
2022/03/02 09:29:45;;;;;;;18.17;10.95;;;4.50;1.00;;;;;;7355576;19;20009;-61
2022/03/02 09:32:16;;;;;;;14.45;10.60;;;4.60;1.00;;;;;;7359398;19;20040;-60
2022/03/02 09:34:49;;;;;;;17.90;10.98;;;4.50;1.00;;;;;;7361328;19;20189;-60
2022/03/02 09:37:19;;;;;;;18.42;11.30;;;4.60;1.00;;;;;;7358881;19;20471;-60
2022/03/02 09:39:51;;;;;;;19.75;11.15;;;4.90;1.00;;;;;;7357145;19;20052;-60
2022/03/02 09:42:30;;;;;;;19.38;11.60;;;5.00;1.00;;;;;;7386624;19;20014;-60
2022/03/02 09:45:03;;;;;;;17.50;11.23;;;5.00;1.00;;;;;;7365839;19;20530;-59
2022/03/02 09:47:45;;;;;;;21.05;12.02;;;4.90;1.00;;;;;;7367673;19;20070;-61
2022/03/02 09:50:18;;;;;;;20.58;10.98;;;4.70;1.00;;;;;;7363509;19;20421;-60
2022/03/02 09:52:50;;;;;;;18.90;11.48;;;5.00;1.00;;;;;;7364131;19;20010;-62
2022/03/02 09:55:22;;;;;;;19.50;11.57;;;5.20;1.00;;;;;;7366643;19;20074;-60
2022/03/02 09:57:56;;;;;;;22.63;12.82;;;5.10;1.00;;;;;;7365733;19;20023;-60
2022/03/02 10:00:29;;;;;;;21.42;11.43;;;5.30;1.00;;;;;;7385517;19;20014;-60
2022/03/02 10:03:02;;;;;;;18.67;11.82;;;5.40;1.00;;;;;;7362434;19;20078;-60
2022/03/02 10:05:35;;;;;;;18.98;12.13;;;5.20;1.00;;;;;;7365561;19;20010;-59
2022/03/02 10:08:07;;;;;;;18.25;12.02;;;5.40;1.00;;;;;;7364136;19;20078;-60
2022/03/02 10:10:40;;;;;;;17.23;11.50;;;5.50;1.00;;;;;;7366264;19;20069;-59
2022/03/02 10:13:15;;;;;;;19.45;11.52;;;5.40;1.00;;;;;;7363667;19;20066;-59
2022/03/02 10:15:46;;;;;;;20.90;13.18;;;5.30;1.00;;;;;;7386135;19;20077;-60
2022/03/02 10:18:16;;;;;;;17.23;11.68;;;5.40;1.00;;;;;;7361159;19;20779;-60
2022/03/02 10:20:49;;;;;;;20.25;11.98;;;6.00;1.00;;;;;;7365206;19;20255;-61
2022/03/02 10:23:37;;;;;;;20.52;11.25;;;6.20;1.00;;;;;;7363590;19;20010;-61
2022/03/02 10:26:13;;;;;;;17.98;11.40;;;6.40;1.00;;;;;;7367405;19;20031;-60
2022/03/02 10:28:58;;;;;;;18.70;11.93;;;6.30;1.00;;;;;;7360026;19;20018;-61
2022/03/02 10:31:46;;;;;;;18.92;11.55;;;6.20;1.00;;;;;;7365992;19;20023;-60
2022/03/02 10:34:35;;;;;;;20.42;11.73;;;6.40;1.00;;;;;;7364213;19;20059;-61
2022/03/02 10:37:13;;;;;;;17.70;11.80;;;6.00;1.00;;;;;;7366293;19;20101;-61
2022/03/02 10:39:54;;;;;;;18.48;11.43;;;6.30;1.00;;;;;;7384912;19;20465;-65
2022/03/02 10:42:26;;;;;;;18.63;11.55;;;6.50;1.00;;;;;;7364711;19;20345;-60
2022/03/02 10:45:09;;;;;;;21.23;12.20;;;6.10;1.00;;;;;;7362511;19;20070;-60
2022/03/02 10:47:44;;;;;;;22.48;11.93;;;6.10;1.00;;;;;;7362699;19;20019;-60
2022/03/02 10:50:14;;;;;;;14.20;9.40;;;5.90;1.00;;;;;;7360235;19;20002;-59
2022/03/02 10:52:44;;;;;;;18.48;10.93;;;6.10;1.00;;;;;;7363354;19;20006;-61
2022/03/02 10:55:15;;;;;;;14.88;10.48;;;5.80;1.00;;;;;;7365278;19;20015;-61
2022/03/02 10:57:50;;;;;;;15.20;10.45;;;5.90;1.00;;;;;;7384668;19;20035;-60
2022/03/02 11:00:24;;;;;;;18.25;11.43;;;6.20;1.00;;;;;;7358883;19;20007;-60
2022/03/02 11:02:57;;;;;;;17.75;11.27;;;6.40;1.00;;;;;;7360854;19;20082;-60
2022/03/02 11:05:30;;;;;;;16.05;11.07;;;6.20;1.00;;;;;;7362768;19;20019;-60
2022/03/02 11:08:01;;;;;;;21.27;11.40;;;6.20;1.00;;;;;;7364103;19;20022;-61
2022/03/02 11:10:37;;;;;;;21.25;11.20;;;6.40;1.00;;;;;;7360709;19;20011;-59
2022/03/02 11:13:11;;;;;;;18.77;11.13;;;6.30;1.00;;;;;;7360409;19;20000;-60
2022/03/02 11:15:54;;;;;;;;;;;6.40;1.00;;;;;;7384946;19;20019;-60
2022/03/02 11:18:35;;;;;;;17.63;10.77;;;6.60;1.00;;;;;;7361235;19;19943;-59
2022/03/02 11:21:07;;;;;;;18.80;11.18;;;6.60;1.00;;;;;;7364388;19;20015;-60
2022/03/02 11:23:44;;;;;;;20.55;11.38;;;6.50;1.00;;;;;;7358065;19;20433;-60
2022/03/02 11:26:16;;;;;;;18.13;10.93;;;6.40;1.00;;;;;;7363120;19;20092;-60
2022/03/02 11:28:49;;;;;;;20.00;11.35;;;6.40;1.00;;;;;;7358764;19;20003;-60
2022/03/02 11:31:26;;;;;;;19.92;11.13;;;6.30;1.00;;;;;;7364085;19;20093;-60
2022/03/02 11:34:12;;;;;;;14.45;10.38;;;6.30;1.00;;;;;;7360719;19;20022;-60
2022/03/02 11:36:45;;;;;;;16.63;10.00;;;6.40;1.00;;;;;;7384398;19;20078;-60
2022/03/02 11:39:17;;;;;;;15.73;10.27;;;6.60;1.00;;;;;;7355361;19;20015;-60
2022/03/02 11:41:48;;;;;;;12.82;8.93;;;6.70;1.00;;;;;;7362234;19;20081;-61
2022/03/02 11:44:30;;;;;;;18.67;11.18;;;6.80;1.00;;;;;;7361716;19;20031;-61
2022/03/02 11:47:08;;;;;;;14.82;9.60;;;6.70;1.00;;;;;;7364550;19;20022;-60
2022/03/02 11:49:43;;;;;;;16.95;9.77;;;6.50;1.00;;;;;;7357418;19;20003;-59
2022/03/02 11:52:15;;;;;;;15.95;9.70;;;6.70;1.00;;;;;;7360628;19;20010;-61
2022/03/02 11:54:48;;;;;;;14.07;9.65;;;6.90;1.00;;;;;;7375462;19;20014;-60
2022/03/02 11:57:20;;;;;;;16.30;10.02;;;6.80;1.00;;;;;;7385528;19;20074;-61
2022/03/02 12:00:06;;;;;;;18.17;10.10;;;7.10;1.00;;;;;;7357161;19;20015;-59
2022/03/02 12:02:44;;;;;;;14.68;9.27;;;7.10;1.00;;;;;;7358331;19;20086;-61
2022/03/02 12:05:15;;;;;;;14.43;9.13;;;7.30;1.00;;;;;;7361356;19;20015;-61
2022/03/02 12:07:48;;;;;;;13.80;9.20;;;7.20;1.00;;;;;;7361767;19;20029;-61
2022/03/02 12:10:20;;;;;;;15.05;9.00;;;7.30;1.00;;;;;;7359193;19;20078;-62
2022/03/02 12:12:52;;;;;;;14.88;9.90;;;7.40;1.00;;;;;;7360110;19;20027;-61
2022/03/02 12:15:23;;;;;;;18.80;10.85;;;7.30;1.00;;;;;;7380221;19;20035;-61
2022/03/02 12:18:10;;;;;;;17.30;9.80;;;7.30;1.00;;;;;;7360272;19;20474;-61
2022/03/02 12:20:47;;;;;;;14.50;9.73;;;7.60;1.00;;;;;;7360561;19;20021;-60
2022/03/02 12:23:24;;;;;;;17.50;9.88;;;7.50;1.00;;;;;;7361288;19;20010;-60
2022/03/02 12:25:54;;;;;;;15.32;8.80;;;7.50;1.00;;;;;;7363270;19;20439;-60
2022/03/02 12:28:25;;;;;;;15.45;9.85;;;7.20;1.00;;;;;;7357374;19;20092;-61
2022/03/02 12:30:56;;;;;;;14.35;9.10;;;7.30;1.00;;;;;;7358896;19;20462;-59
2022/03/02 12:33:29;;;;;;;13.73;8.85;;;7.30;1.00;;;;;;7381583;19;20557;-59
2022/03/02 12:36:19;;;;;;;15.43;9.77;;;7.00;1.00;;;;;;7361613;19;20466;-60
2022/03/02 12:39:09;;;;;;;17.67;10.60;;;6.90;1.00;;;;;;7356143;19;20025;-59
2022/03/02 12:41:39;;;;;;;17.80;9.57;;;6.90;1.00;;;;;;7360568;19;20085;-61
2022/03/02 12:44:10;;;;;;;14.93;9.10;;;6.90;1.00;;;;;;7357958;19;20010;-60
2022/03/02 12:46:40;;;;;;;16.27;9.63;;;6.80;1.00;;;;;;7362367;19;20010;-61
2022/03/02 12:49:14;;;;;;;17.77;8.85;;;6.90;1.00;;;;;;7356779;19;20006;-61
2022/03/02 12:51:47;;;;;;;15.48;9.18;;;6.80;1.00;;;;;;7383009;19;20462;-60
2022/03/02 12:54:17;;;;;;;13.95;8.85;;;6.90;1.00;;;;;;7359417;19;20475;-60
2022/03/02 12:56:47;;;;;;;15.05;9.40;;;6.90;1.00;;;;;;7359682;19;20011;-60
2022/03/02 12:59:19;;;;;;;15.93;9.85;;;7.20;1.00;;;;;;7354805;19;20412;-60
2022/03/02 13:01:49;;;;;;;14.32;8.90;;;7.30;1.00;;;;;;7360908;19;20018;-61
2022/03/02 13:04:29;;;;;;;13.05;8.70;;;7.20;1.00;;;;;;7359519;19;20097;-60
2022/03/02 13:07:06;;;;;;;15.75;8.88;;;7.30;1.00;;;;;;7360479;19;20530;-59
2022/03/02 13:09:46;;;;;;;16.95;9.40;;;7.50;1.00;;;;;;7376738;19;20015;-60
2022/03/02 13:12:32;;;;;;;22.38;11.15;;;7.40;1.00;;;;;;7357772;19;20047;-60